カーブル の空港の天気 - METARとTAF

カーブル国際空港 ( OAKB / KBL ) - アフガニスタン カーブル
飛行場実況気象(Metar)
観測時間10/16 11:20 AFT (10/16 06:50 UTC)
風向・風速不定 1m/s
視程10km以上
天気現象
なし
気温22℃
湿度19%
気圧1025hPa
METAROAKB 160650Z VRB01KT CAVOK 22/M03 Q1025 NOSIG RMK A3028 BLU BLU
過去の天気等 Google飛行場航空写真 Wunderground天気予報

過去48時間のMETAR

飛行場予報(TAF)
発表時間: 10/16 09:35 AFT (10/16 05:05 UTC)
予報対象時間: 16日10時 AFT ~ 17日10時 AFT
風向・風速不定 1m/s
視程10km以上
なし
16日12時 AFT ~ 16日19時 AFT に一時的に
風向・風速東北東 6m/s
少しの雲 雲底高度 2440m
16日23時 AFT ~ 17日1時 AFT に徐々に
視程8000m
なし
17日4時 AFT ~ 17日8時 AFT に一時的に
視程5000m
天気現象煙霧
TAF OAKB 160505Z 1606/1706 VRB02KT CAVOK
TEMPO 1608/1615 07012KT FEW080
BECMG 1619/1621 8000 NSC
TEMPO 1700/1704 5000 HZ